Time;durP1;ratioP1;P1;durP2;ratioP2;P2;SDS_P1;SDS_P2;PMS_P1;PMS_P2;Temp;Humidity;BMP_temperature;BMP_pressure;BME280_temperature;BME280_humidity;BME280_pressure;Samples;Min_cycle;Max_cycle;Signal;HPM_P1;HPM_P2
2022/09/30 00:01:38;;;;;;;12.32;10.13;;;6.20;99.90;;;;;;4386169;27;10000501;-76
2022/09/30 00:04:20;;;;;;;10.30;9.20;;;6.20;99.90;;;;;;5092025;27;20306;-76
2022/09/30 00:06:47;;;;;;;10.50;9.20;;;6.20;99.90;;;;;;5099704;27;20026;-77
2022/09/30 00:09:14;;;;;;;9.60;8.60;;;6.10;99.90;;;;;;5101382;27;20098;-77
2022/09/30 00:11:40;;;;;;;8.82;7.93;;;6.20;99.90;;;;;;5096307;27;20022;-77
2022/09/30 00:14:11;;;;;;;12.55;10.35;;;6.10;99.90;;;;;;5099503;27;20099;-77
2022/09/30 00:16:37;;;;;;;13.20;10.68;;;6.10;99.90;;;;;;5103998;27;20204;-76
2022/09/30 00:19:04;;;;;;;11.18;9.98;;;6.10;99.90;;;;;;5111479;27;20016;-76
2022/09/30 00:21:32;;;;;;;10.63;9.52;;;6.00;99.90;;;;;;5098814;27;20026;-76
2022/09/30 00:23:58;;;;;;;12.75;10.13;;;5.90;99.90;;;;;;5104939;27;20568;-77
2022/09/30 00:26:24;;;;;;;10.80;9.43;;;5.90;99.90;;;;;;5116433;27;20232;-76
2022/09/30 00:28:56;;;;;;;10.98;9.70;;;5.80;99.90;;;;;;5113134;27;20022;-76
2022/09/30 00:31:23;;;;;;;10.30;8.50;;;5.80;99.90;;;;;;5103971;27;20019;-76
2022/09/30 00:34:05;;;;;;;10.00;8.45;;;5.90;99.90;;;;;;5092748;27;20042;-76
2022/09/30 00:36:43;;;;;;;10.02;8.32;;;5.90;99.90;;;;;;5087215;27;20107;-76
2022/09/30 00:39:13;;;;;;;12.95;9.35;;;5.90;99.90;;;;;;5089275;28;20032;-76
2022/09/30 00:41:39;;;;;;;8.95;8.02;;;5.90;99.90;;;;;;5101992;27;20027;-76
2022/09/30 00:44:42;;;;;;;11.00;8.18;;;5.80;99.90;;;;;;5100904;28;20031;-76
2022/09/30 00:47:35;;;;;;;10.57;9.20;;;5.90;99.90;;;;;;5094820;28;20019;-76
2022/09/30 00:50:33;;;;;;;11.60;9.10;;;5.90;99.90;;;;;;5099499;28;20032;-75
2022/09/30 00:53:07;;;;;;;9.45;7.75;;;6.00;99.90;;;;;;5089678;28;20447;-75
2022/09/30 00:55:48;;;;;;;14.38;9.77;;;6.00;99.90;;;;;;5101357;28;20023;-75
2022/09/30 00:58:20;;;;;;;12.52;8.88;;;6.00;99.90;;;;;;5103979;28;20539;-75
2022/09/30 01:00:47;;;;;;;21.90;9.98;;;6.00;99.90;;;;;;5108661;28;20574;-76
2022/09/30 01:03:13;;;;;;;10.18;9.07;;;6.10;99.90;;;;;;5089279;28;20047;-75
2022/09/30 01:05:39;;;;;;;10.10;9.00;;;6.10;99.90;;;;;;5101834;28;20106;-76
2022/09/30 01:08:07;;;;;;;9.77;8.77;;;6.00;99.90;;;;;;5098486;28;20118;-76
2022/09/30 01:10:32;;;;;;;10.40;9.30;;;6.10;99.90;;;;;;5086887;28;20015;-76
2022/09/30 01:12:59;;;;;;;11.90;10.00;;;6.00;99.90;;;;;;5103041;28;20036;-75
2022/09/30 01:15:39;;;;;;;15.73;9.05;;;6.00;99.90;;;;;;5101533;28;20032;-76
2022/09/30 01:18:20;;;;;;;9.50;8.60;;;6.10;99.90;;;;;;5095867;28;20023;-75
2022/09/30 01:21:17;;;;;;;9.20;8.27;;;6.00;99.90;;;;;;5101327;28;20045;-76
2022/09/30 01:24:09;;;;;;;8.90;8.00;;;6.00;99.90;;;;;;5106121;28;20027;-76
2022/09/30 01:26:58;;;;;;;8.18;7.38;;;6.00;99.90;;;;;;5094580;28;20122;-76
2022/09/30 01:29:59;;;;;;;10.25;8.45;;;6.00;99.90;;;;;;5101542;28;20034;-76
2022/09/30 01:32:54;;;;;;;8.82;7.93;;;5.90;99.90;;;;;;5100518;28;20510;-76
2022/09/30 01:35:41;;;;;;;8.70;7.80;;;5.90;99.90;;;;;;5104806;28;20471;-75
2022/09/30 01:38:29;;;;;;;9.35;8.23;;;5.90;99.90;;;;;;5081291;28;20058;-76
2022/09/30 01:41:00;;;;;;;9.77;8.75;;;5.80;99.90;;;;;;5097718;28;20310;-76
2022/09/30 01:43:43;;;;;;;9.43;8.05;;;5.80;99.90;;;;;;5108436;27;20043;-75
2022/09/30 01:46:28;;;;;;;8.68;7.70;;;5.70;99.90;;;;;;5129801;27;20019;-75
2022/09/30 01:48:57;;;;;;;8.18;7.00;;;5.70;99.90;;;;;;5124692;27;20096;-76
2022/09/30 01:51:46;;;;;;;7.40;6.65;;;5.70;99.90;;;;;;5119263;27;20108;-76
2022/09/30 01:54:29;;;;;;;7.68;6.97;;;5.80;99.90;;;;;;5119667;27;20038;-75
2022/09/30 01:57:06;;;;;;;9.20;7.18;;;5.70;99.90;;;;;;5123591;27;20038;-76
2022/09/30 01:59:38;;;;;;;7.30;6.55;;;5.70;99.90;;;;;;5130095;27;20026;-76
2022/09/30 02:02:18;;;;;;;6.55;5.93;;;5.70;99.90;;;;;;5116796;27;20059;-75
2022/09/30 02:04:52;;;;;;;6.57;5.95;;;5.60;99.90;;;;;;5127445;27;20492;-75
2022/09/30 02:07:29;;;;;;;8.60;6.50;;;5.60;99.90;;;;;;5121946;27;20291;-76
2022/09/30 02:10:01;;;;;;;6.38;5.78;;;5.60;99.90;;;;;;5128891;27;20054;-74
2022/09/30 02:12:32;;;;;;;7.28;6.55;;;5.60;99.90;;;;;;5123011;27;20526;-75
2022/09/30 02:15:11;;;;;;;7.65;6.90;;;5.60;99.90;;;;;;5137528;27;20031;-75
2022/09/30 02:17:45;;;;;;;10.52;7.25;;;5.70;99.90;;;;;;5135808;27;20497;-75
2022/09/30 02:20:32;;;;;;;8.55;7.35;;;5.70;99.90;;;;;;5130049;27;20204;-74
2022/09/30 02:23:19;;;;;;;6.93;6.32;;;5.70;99.90;;;;;;5127272;27;20028;-75
2022/09/30 02:25:54;;;;;;;9.80;7.18;;;5.80;99.90;;;;;;5118809;27;20027;-75
2022/09/30 02:28:25;;;;;;;13.70;6.38;;;5.80;99.90;;;;;;5121981;27;20209;-75
2022/09/30 02:30:55;;;;;;;11.73;6.20;;;5.80;99.90;;;;;;5131822;27;20042;-75
2022/09/30 02:33:46;;;;;;;13.02;5.80;;;5.80;99.90;;;;;;5122032;27;20030;-75
2022/09/30 02:36:43;;;;;;;6.45;5.85;;;5.80;99.90;;;;;;5110158;27;20075;-76
2022/09/30 02:39:21;;;;;;;6.22;5.63;;;5.80;99.90;;;;;;5076051;27;20028;-75
2022/09/30 02:41:52;;;;;;;7.38;5.60;;;5.70;99.90;;;;;;5120547;27;20036;-75
2022/09/30 02:44:19;;;;;;;7.35;5.70;;;5.80;99.90;;;;;;5131439;27;20460;-76
2022/09/30 02:46:51;;;;;;;8.68;5.70;;;5.70;99.90;;;;;;5115518;27;20062;-75
2022/09/30 02:49:45;;;;;;;7.40;6.18;;;5.80;99.90;;;;;;5122292;27;20408;-75
2022/09/30 02:52:23;;;;;;;16.20;6.00;;;5.70;99.90;;;;;;5120473;27;20030;-75
2022/09/30 02:55:13;;;;;;;8.25;6.15;;;5.70;99.90;;;;;;5105114;27;20020;-75
2022/09/30 02:57:46;;;;;;;5.80;5.30;;;5.70;99.90;;;;;;5107188;27;20032;-75
2022/09/30 03:00:12;;;;;;;9.85;5.30;;;5.70;99.90;;;;;;5115675;27;20461;-75
2022/09/30 03:02:39;;;;;;;13.13;5.30;;;5.70;99.90;;;;;;5113347;27;20530;-75
2022/09/30 03:05:05;;;;;;;6.00;5.40;;;5.80;99.90;;;;;;5123437;27;20128;-75
2022/09/30 03:07:30;;;;;;;5.60;5.10;;;5.70;99.90;;;;;;5116356;27;20039;-75
2022/09/30 03:09:59;;;;;;;5.15;4.65;;;5.70;99.90;;;;;;5113380;27;20729;-75
2022/09/30 03:12:31;;;;;;;7.53;4.97;;;5.80;99.90;;;;;;5112770;27;20088;-75
2022/09/30 03:15:17;;;;;;;5.55;5.05;;;5.80;99.90;;;;;;5127723;27;20094;-76
2022/09/30 03:17:57;;;;;;;9.73;4.65;;;5.80;99.90;;;;;;5106146;27;21296;-74
2022/09/30 03:21:00;;;;;;;7.85;4.30;;;5.80;99.90;;;;;;5122904;27;20026;-76
2022/09/30 03:24:04;;;;;;;11.40;4.70;;;5.70;99.90;;;;;;5113637;27;20474;-75
2022/09/30 03:26:45;;;;;;;;;;;5.60;99.90;;;;;;5118871;27;20121;-76
2022/09/30 03:29:25;;;;;;;6.55;5.03;;;5.60;99.90;;;;;;5121338;27;19911;-75
2022/09/30 03:31:53;;;;;;;5.50;4.53;;;5.50;99.90;;;;;;5132764;27;20105;-75
2022/09/30 03:34:37;;;;;;;5.10;4.60;;;5.50;99.90;;;;;;5116872;27;20016;-75
2022/09/30 03:37:15;;;;;;;13.63;5.22;;;5.40;99.90;;;;;;5120748;27;20030;-75
2022/09/30 03:40:16;;;;;;;21.88;5.28;;;5.50;99.90;;;;;;5107316;27;20110;-75
2022/09/30 03:42:51;;;;;;;6.85;5.15;;;5.50;99.90;;;;;;5107669;27;20526;-75
2022/09/30 03:45:23;;;;;;;14.55;5.43;;;5.50;99.90;;;;;;5121930;27;20061;-74
2022/09/30 03:47:53;;;;;;;33.40;5.22;;;5.50;99.90;;;;;;5122766;27;20098;-76
2022/09/30 03:50:22;;;;;;;8.02;4.40;;;5.60;99.90;;;;;;5133479;27;20091;-75
2022/09/30 03:52:48;;;;;;;5.72;5.13;;;5.50;99.90;;;;;;5113912;27;20034;-74
2022/09/30 03:55:15;;;;;;;5.85;5.20;;;5.50;99.90;;;;;;5122117;27;20015;-74
2022/09/30 03:57:43;;;;;;;10.23;5.38;;;5.40;99.90;;;;;;5118334;27;20019;-75
2022/09/30 04:00:11;;;;;;;6.28;5.18;;;5.50;99.90;;;;;;5114916;27;20023;-75
2022/09/30 04:02:37;;;;;;;7.05;5.70;;;5.50;99.90;;;;;;5115877;27;20065;-73
2022/09/30 04:05:04;;;;;;;27.30;4.90;;;5.50;99.90;;;;;;5112803;27;20110;-75
2022/09/30 04:07:30;;;;;;;5.38;4.88;;;5.50;99.90;;;;;;5116149;27;20513;-75
2022/09/30 04:09:55;;;;;;;12.93;4.80;;;5.40;99.90;;;;;;5120512;27;20517;-75
2022/09/30 04:12:21;;;;;;;5.00;4.50;;;5.40;99.90;;;;;;5130257;27;20431;-75
2022/09/30 04:14:47;;;;;;;12.48;5.13;;;5.30;99.90;;;;;;5120029;27;20030;-75
2022/09/30 04:17:13;;;;;;;5.45;4.75;;;5.30;99.90;;;;;;5120673;27;20492;-75
2022/09/30 04:19:39;;;;;;;4.93;4.53;;;5.40;99.90;;;;;;5133597;27;20026;-75
2022/09/30 04:22:06;;;;;;;5.75;4.60;;;5.30;99.90;;;;;;5107750;27;20088;-75
2022/09/30 04:24:32;;;;;;;25.33;5.57;;;5.30;99.90;;;;;;5097920;28;20043;-75
2022/09/30 04:26:57;;;;;;;5.10;4.60;;;5.30;99.90;;;;;;5105983;27;20062;-75
2022/09/30 04:29:23;;;;;;;11.07;5.03;;;5.30;99.90;;;;;;5107163;27;20219;-74
2022/09/30 04:31:48;;;;;;;10.38;4.95;;;5.30;99.90;;;;;;5124935;27;20027;-76
2022/09/30 04:34:14;;;;;;;56.92;6.10;;;5.30;99.90;;;;;;5124291;27;20035;-74
2022/09/30 04:36:40;;;;;;;6.45;5.53;;;5.40;99.90;;;;;;5114435;27;20024;-75
2022/09/30 04:39:06;;;;;;;7.13;5.70;;;5.40;99.90;;;;;;5110013;27;20031;-75
2022/09/30 04:41:32;;;;;;;6.70;4.93;;;5.40;99.90;;;;;;5118584;27;20431;-74
2022/09/30 04:43:59;;;;;;;5.88;5.28;;;5.40;99.90;;;;;;5125487;27;20109;-75
2022/09/30 04:46:24;;;;;;;10.55;4.78;;;5.50;99.90;;;;;;5133441;27;20487;-74
2022/09/30 04:48:50;;;;;;;10.48;4.70;;;5.50;99.90;;;;;;5113008;27;20244;-76
2022/09/30 04:51:20;;;;;;;11.50;5.10;;;5.50;99.90;;;;;;5117765;27;20050;-75
2022/09/30 04:53:47;;;;;;;14.30;5.28;;;5.50;99.90;;;;;;5110116;27;20112;-75
2022/09/30 04:56:13;;;;;;;38.45;6.20;;;5.50;99.90;;;;;;5114754;27;20023;-75
2022/09/30 04:58:39;;;;;;;95.80;6.95;;;5.50;99.90;;;;;;5112654;27;20027;-75
2022/09/30 05:01:10;;;;;;;5.72;5.22;;;5.50;99.90;;;;;;5107468;27;20368;-75
2022/09/30 05:03:37;;;;;;;6.45;5.47;;;5.50;99.90;;;;;;5116903;27;20044;-75
2022/09/30 05:06:04;;;;;;;19.90;5.70;;;5.50;99.90;;;;;;5125457;27;20037;-75
2022/09/30 05:08:32;;;;;;;26.35;6.68;;;5.40;99.90;;;;;;5134873;27;20031;-75
2022/09/30 05:11:04;;;;;;;6.70;6.00;;;5.40;99.90;;;;;;5128761;27;20023;-75
2022/09/30 05:13:33;;;;;;;6.88;6.18;;;5.40;99.90;;;;;;5124451;27;20035;-74
2022/09/30 05:15:59;;;;;;;10.02;8.00;;;5.30;99.90;;;;;;5114387;27;20027;-75
2022/09/30 05:18:27;;;;;;;16.48;7.35;;;5.40;99.90;;;;;;5127488;27;20171;-74
2022/09/30 05:20:56;;;;;;;15.23;6.70;;;5.40;99.90;;;;;;5121161;27;20298;-75
2022/09/30 05:23:22;;;;;;;22.65;7.13;;;5.40;99.90;;;;;;5134927;27;20034;-74
2022/09/30 05:25:49;;;;;;;22.08;6.75;;;5.50;99.90;;;;;;5128022;27;20114;-74
2022/09/30 05:28:14;;;;;;;32.92;7.03;;;5.50;99.90;;;;;;5114505;27;20011;-75
2022/09/30 05:30:42;;;;;;;10.15;7.15;;;5.50;99.90;;;;;;5126484;27;20080;-74
2022/09/30 05:33:08;;;;;;;7.22;6.50;;;5.50;99.90;;;;;;5127496;27;20039;-75
2022/09/30 05:35:34;;;;;;;11.05;6.40;;;5.50;99.90;;;;;;5130908;27;20053;-75
2022/09/30 05:38:00;;;;;;;10.25;6.95;;;5.50;99.90;;;;;;5127206;27;20027;-74
2022/09/30 05:40:26;;;;;;;18.98;7.38;;;5.50;99.90;;;;;;5125072;27;20027;-75
2022/09/30 05:42:52;;;;;;;19.45;6.28;;;5.50;99.90;;;;;;5134672;27;20042;-75
2022/09/30 05:45:17;;;;;;;12.70;6.43;;;5.40;99.90;;;;;;5125889;27;20043;-75
2022/09/30 05:47:49;;;;;;;18.33;7.20;;;5.40;99.90;;;;;;5120145;27;20027;-75
2022/09/30 05:50:15;;;;;;;21.50;7.45;;;5.40;99.90;;;;;;5113006;27;20506;-75
2022/09/30 05:52:40;;;;;;;20.15;7.50;;;5.40;99.90;;;;;;5119242;27;20039;-75
2022/09/30 05:55:06;;;;;;;31.30;7.38;;;5.40;99.90;;;;;;5108495;27;20452;-75
2022/09/30 05:57:32;;;;;;;7.82;7.03;;;5.50;99.90;;;;;;5120483;27;20417;-74
2022/09/30 05:59:58;;;;;;;18.02;7.80;;;5.50;99.90;;;;;;5128712;27;20059;-75
2022/09/30 06:02:23;;;;;;;18.75;8.27;;;5.50;99.90;;;;;;5115777;27;20035;-75
2022/09/30 06:04:49;;;;;;;16.20;8.25;;;5.50;99.90;;;;;;5135395;27;20075;-75
2022/09/30 06:07:15;;;;;;;9.90;8.40;;;5.50;99.90;;;;;;5109644;27;20043;-74
2022/09/30 06:09:41;;;;;;;9.20;8.20;;;5.60;99.90;;;;;;5117920;27;20733;-75
2022/09/30 06:12:08;;;;;;;9.30;8.25;;;5.60;99.90;;;;;;5126157;27;20746;-75
2022/09/30 06:14:34;;;;;;;12.43;8.13;;;5.70;99.90;;;;;;5121301;27;20062;-74
2022/09/30 06:17:00;;;;;;;19.92;9.48;;;5.70;99.90;;;;;;5117701;27;20173;-74
2022/09/30 06:19:29;;;;;;;19.80;8.02;;;5.70;99.90;;;;;;5125903;27;20038;-75
2022/09/30 06:21:56;;;;;;;40.78;13.68;;;5.80;99.90;;;;;;5119801;27;20015;-75
2022/09/30 06:24:21;;;;;;;20.88;11.88;;;5.80;99.90;;;;;;5134453;27;20031;-75
2022/09/30 06:26:48;;;;;;;19.95;13.35;;;5.80;99.90;;;;;;5125496;27;20031;-74
2022/09/30 06:29:13;;;;;;;17.95;13.07;;;5.80;99.90;;;;;;5128387;27;20030;-75
2022/09/30 06:31:39;;;;;;;22.20;9.38;;;5.80;99.90;;;;;;5124216;27;20023;-75
2022/09/30 06:34:05;;;;;;;9.02;8.02;;;5.80;99.90;;;;;;5115310;27;20055;-75
2022/09/30 06:36:32;;;;;;;15.93;9.00;;;5.80;99.90;;;;;;5120996;27;20110;-74
2022/09/30 06:38:59;;;;;;;10.85;8.93;;;5.80;99.90;;;;;;5133598;27;20031;-74
2022/09/30 06:41:26;;;;;;;43.05;8.85;;;5.80;99.90;;;;;;5122936;27;20020;-74
2022/09/30 06:43:52;;;;;;;15.15;9.40;;;5.80;99.90;;;;;;5117337;27;20563;-74
2022/09/30 06:46:18;;;;;;;14.70;9.10;;;5.80;99.90;;;;;;5129281;27;20361;-74
2022/09/30 06:48:44;;;;;;;37.88;9.52;;;5.80;99.90;;;;;;5128904;27;20022;-74
2022/09/30 06:51:10;;;;;;;11.63;8.60;;;5.90;99.90;;;;;;5127818;27;20037;-75
2022/09/30 06:53:38;;;;;;;12.73;9.27;;;5.90;99.90;;;;;;5117211;27;20534;-75
2022/09/30 06:56:05;;;;;;;12.48;8.65;;;5.90;99.90;;;;;;5116243;27;20028;-74
2022/09/30 06:58:31;;;;;;;22.83;8.63;;;5.90;99.90;;;;;;5110658;27;20106;-75
2022/09/30 07:01:00;;;;;;;22.38;8.88;;;5.90;99.90;;;;;;5106646;27;20110;-75
2022/09/30 07:03:30;;;;;;;13.93;8.52;;;6.00;99.90;;;;;;5107572;27;20621;-75
2022/09/30 07:05:58;;;;;;;19.77;8.68;;;6.00;99.90;;;;;;5109067;27;20035;-75
2022/09/30 07:08:33;;;;;;;24.35;10.15;;;6.00;99.90;;;;;;5109220;27;20499;-74
2022/09/30 07:11:13;;;;;;;29.48;9.80;;;6.00;99.90;;;;;;5108345;27;20034;-75
2022/09/30 07:13:40;;;;;;;21.70;10.30;;;6.00;99.90;;;;;;5117828;27;20105;-75
2022/09/30 07:16:07;;;;;;;15.98;10.77;;;6.10;99.90;;;;;;5107610;27;20049;-74
2022/09/30 07:18:32;;;;;;;40.80;9.93;;;6.20;99.90;;;;;;5105865;27;20027;-75
2022/09/30 07:20:58;;;;;;;13.48;9.60;;;6.20;99.90;;;;;;5103583;27;20038;-75
2022/09/30 07:23:26;;;;;;;31.98;12.02;;;6.20;99.90;;;;;;5111675;27;20399;-75
2022/09/30 07:25:57;;;;;;;12.07;8.75;;;6.30;99.90;;;;;;5108644;27;20498;-75
2022/09/30 07:28:30;;;;;;;11.50;9.52;;;6.30;99.90;;;;;;5107450;27;20163;-75
2022/09/30 07:30:57;;;;;;;;;;;6.30;99.90;;;;;;5104555;27;20027;-75
2022/09/30 07:33:24;;;;;;;10.18;9.05;;;6.30;99.90;;;;;;5110592;27;19915;-75
2022/09/30 07:35:52;;;;;;;14.93;9.52;;;6.40;99.90;;;;;;5110639;27;20507;-75
2022/09/30 07:38:20;;;;;;;17.77;8.35;;;6.50;99.90;;;;;;5106888;27;20016;-75
2022/09/30 07:40:57;;;;;;;26.17;7.70;;;6.60;99.90;;;;;;5117824;27;20034;-75
2022/09/30 07:43:24;;;;;;;36.53;7.65;;;6.60;99.90;;;;;;5109156;27;20099;-75
2022/09/30 07:45:50;;;;;;;51.53;8.38;;;6.60;99.90;;;;;;5128836;27;20040;-75
2022/09/30 07:48:50;;;;;;;27.63;10.32;;;6.60;99.90;;;;;;5118437;27;20399;-75
2022/09/30 07:51:12;;;;;;;16.67;9.60;;;6.60;99.90;;;;;;5091140;27;20039;-75
2022/09/30 07:53:39;;;;;;;14.40;9.32;;;6.70;99.90;;;;;;5120294;27;20047;-75
2022/09/30 07:56:06;;;;;;;11.82;8.77;;;6.80;99.90;;;;;;5123498;27;20087;-74
2022/09/30 07:58:32;;;;;;;16.55;8.30;;;6.90;99.90;;;;;;5116690;27;20039;-74
2022/09/30 08:00:58;;;;;;;46.63;8.90;;;6.90;99.90;;;;;;5111672;27;20024;-74
2022/09/30 08:03:24;;;;;;;26.92;9.00;;;6.90;99.90;;;;;;5106440;27;20031;-75
2022/09/30 08:05:49;;;;;;;23.35;9.45;;;6.90;99.90;;;;;;5115843;27;20034;-74
2022/09/30 08:08:16;;;;;;;15.43;9.93;;;7.00;99.90;;;;;;5121530;27;20429;-74
2022/09/30 08:10:41;;;;;;;17.25;10.23;;;7.10;99.90;;;;;;5134985;27;20030;-75
2022/09/30 08:13:09;;;;;;;13.27;10.68;;;7.10;99.90;;;;;;5115709;27;20062;-74
2022/09/30 08:15:34;;;;;;;34.70;11.23;;;7.20;99.90;;;;;;5130951;27;20034;-75
2022/09/30 08:18:00;;;;;;;17.63;12.82;;;7.20;99.90;;;;;;5119707;27;20023;-75
2022/09/30 08:20:26;;;;;;;12.88;11.35;;;7.30;99.90;;;;;;5121744;27;20062;-75
2022/09/30 08:22:53;;;;;;;20.27;12.27;;;7.30;99.90;;;;;;5120657;27;20027;-75
2022/09/30 08:25:19;;;;;;;16.13;13.02;;;7.40;99.90;;;;;;5116396;27;20026;-75
2022/09/30 08:27:44;;;;;;;17.05;12.85;;;7.40;99.90;;;;;;5113509;27;20035;-75
2022/09/30 08:30:11;;;;;;;12.50;10.63;;;7.50;99.90;;;;;;5123687;27;20031;-75
2022/09/30 08:32:37;;;;;;;17.98;11.45;;;7.60;99.90;;;;;;5115801;27;20024;-74
2022/09/30 08:35:03;;;;;;;14.45;11.38;;;7.60;99.90;;;;;;5116145;27;20392;-74
2022/09/30 08:37:28;;;;;;;12.90;10.75;;;7.60;99.90;;;;;;5138456;27;20090;-74
2022/09/30 08:39:54;;;;;;;12.68;11.00;;;7.70;99.90;;;;;;5137903;27;20095;-74
2022/09/30 08:42:39;;;;;;;17.23;10.80;;;7.80;99.90;;;;;;5126878;27;20702;-75
2022/09/30 08:45:42;;;;;;;13.32;10.88;;;7.90;99.90;;;;;;5119894;27;20534;-75
2022/09/30 08:48:08;;;;;;;14.60;11.55;;;8.00;99.90;;;;;;5105740;28;20510;-75
2022/09/30 08:50:55;;;;;;;12.35;10.73;;;8.00;99.90;;;;;;5121486;27;20431;-75
2022/09/30 08:53:38;;;;;;;15.38;10.93;;;8.10;99.90;;;;;;5116024;28;20043;-74
2022/09/30 08:56:05;;;;;;;;;;;8.20;99.90;;;;;;5112026;28;20509;-75
2022/09/30 08:58:41;;;;;;;14.75;11.43;;;8.20;99.90;;;;;;5107209;28;20004;-75
2022/09/30 09:01:18;;;;;;;13.93;12.40;;;8.30;99.90;;;;;;5120899;27;20545;-75
2022/09/30 09:03:44;;;;;;;15.57;12.85;;;8.40;99.90;;;;;;5121791;27;20023;-75
2022/09/30 09:06:24;;;;;;;17.13;13.05;;;8.50;99.90;;;;;;5121029;27;20027;-75
2022/09/30 09:09:07;;;;;;;17.42;12.32;;;8.60;99.90;;;;;;5116122;27;20019;-74
2022/09/30 09:11:55;;;;;;;14.52;11.50;;;8.60;99.90;;;;;;5124139;27;20046;-75
2022/09/30 09:14:51;;;;;;;17.65;13.70;;;8.70;99.90;;;;;;5121768;27;20463;-75
2022/09/30 09:17:36;;;;;;;26.48;13.73;;;8.80;99.90;;;;;;5119287;27;20046;-75
2022/09/30 09:20:19;;;;;;;18.75;13.25;;;8.80;99.90;;;;;;5129667;27;20026;-75
2022/09/30 09:22:45;;;;;;;9.73;8.55;;;8.90;99.90;;;;;;5139491;27;20035;-75
2022/09/30 09:25:17;;;;;;;18.48;13.77;;;8.90;99.90;;;;;;5115309;27;20031;-75
2022/09/30 09:27:45;;;;;;;17.60;14.15;;;9.10;99.90;;;;;;5109217;27;20023;-74
2022/09/30 09:30:14;;;;;;;13.73;12.32;;;9.20;99.90;;;;;;5124250;27;20106;-75
2022/09/30 09:32:41;;;;;;;15.13;12.45;;;9.20;99.90;;;;;;5119093;27;20058;-75
2022/09/30 09:35:24;;;;;;;18.98;15.15;;;9.30;99.90;;;;;;5118035;27;20027;-75
2022/09/30 09:38:25;;;;;;;16.70;14.10;;;9.50;99.90;;;;;;5101474;27;20071;-75
2022/09/30 09:41:09;;;;;;;17.55;14.02;;;9.60;99.90;;;;;;5124086;27;20038;-75
2022/09/30 09:43:47;;;;;;;20.08;15.45;;;9.70;99.90;;;;;;5121977;27;20120;-75
2022/09/30 09:46:32;;;;;;;18.55;14.50;;;9.80;99.90;;;;;;5128270;27;20027;-74
2022/09/30 09:49:14;;;;;;;23.05;17.08;;;9.90;99.90;;;;;;5127409;27;20034;-75
2022/09/30 09:51:47;;;;;;;19.23;14.68;;;10.00;99.90;;;;;;5119382;27;20094;-75
2022/09/30 09:54:17;;;;;;;16.63;14.63;;;10.00;99.90;;;;;;5120715;27;20496;-75
2022/09/30 09:56:43;;;;;;;16.92;14.60;;;10.10;99.90;;;;;;5124861;27;20033;-75
2022/09/30 09:59:16;;;;;;;15.77;13.10;;;10.30;99.90;;;;;;5123358;27;20031;-75
2022/09/30 10:01:49;;;;;;;14.85;12.77;;;10.40;99.90;;;;;;5136249;27;20032;-75
2022/09/30 10:04:20;;;;;;;14.25;12.32;;;10.50;99.90;;;;;;5128139;27;20038;-75
2022/09/30 10:07:00;;;;;;;13.52;11.35;;;10.60;99.90;;;;;;5111950;27;20574;-75
2022/09/30 10:09:31;;;;;;;12.80;11.50;;;10.60;99.90;;;;;;5122878;27;20042;-75
2022/09/30 10:12:06;;;;;;;13.55;12.02;;;10.60;99.90;;;;;;5115746;27;20015;-75
2022/09/30 10:14:34;;;;;;;12.95;11.18;;;10.60;99.90;;;;;;5127852;27;20027;-75
2022/09/30 10:17:04;;;;;;;14.18;10.73;;;10.70;99.90;;;;;;5132322;27;20598;-75
2022/09/30 10:19:33;;;;;;;12.80;10.98;;;10.90;99.90;;;;;;5132722;27;20538;-75
2022/09/30 10:22:08;;;;;;;13.80;11.57;;;11.10;99.90;;;;;;5129240;27;20038;-75
2022/09/30 10:24:35;;;;;;;12.40;11.10;;;11.20;99.90;;;;;;5115702;27;20027;-75
2022/09/30 10:27:01;;;;;;;15.52;12.43;;;11.30;99.90;;;;;;5113361;27;20100;-75
2022/09/30 10:29:32;;;;;;;13.07;11.00;;;11.40;99.90;;;;;;5129030;27;20483;-75
2022/09/30 10:32:08;;;;;;;15.73;11.85;;;11.50;99.90;;;;;;5114824;27;20406;-75
2022/09/30 10:34:40;;;;;;;15.30;12.80;;;11.60;99.90;;;;;;5111547;27;20110;-75
2022/09/30 10:37:22;;;;;;;13.38;11.20;;;11.70;99.90;;;;;;5114843;27;20114;-75
2022/09/30 10:40:01;;;;;;;13.38;11.98;;;11.80;99.90;;;;;;5128736;27;20034;-76
2022/09/30 10:42:30;;;;;;;14.77;11.05;;;12.00;99.90;;;;;;5116901;27;20051;-75
2022/09/30 10:45:15;;;;;;;11.60;10.40;;;12.20;99.90;;;;;;5131723;27;20027;-75
2022/09/30 10:47:47;;;;;;;15.52;12.07;;;12.30;99.90;;;;;;5113793;27;20346;-75
2022/09/30 10:50:19;;;;;;;12.30;10.75;;;12.40;99.90;;;;;;5138029;27;20594;-75
2022/09/30 10:52:56;;;;;;;12.87;10.47;;;12.40;99.90;;;;;;5144539;27;20027;-76
2022/09/30 10:55:40;;;;;;;13.20;11.25;;;12.50;99.90;;;;;;5148151;27;20367;-75
2022/09/30 10:58:25;;;;;;;13.38;11.93;;;12.60;99.90;;;;;;5114654;27;20102;-75
2022/09/30 11:01:20;;;;;;;17.20;13.68;;;12.60;99.90;;;;;;5108909;27;20028;-75
2022/09/30 11:03:56;;;;;;;12.30;11.00;;;12.70;99.90;;;;;;5139698;27;20014;-75
2022/09/30 11:06:28;;;;;;;17.77;14.30;;;12.90;99.90;;;;;;4525422;27;10001998;-76
2022/09/30 11:09:16;;;;;;;12.98;11.07;;;13.00;99.90;;;;;;5100518;27;20557;-77
2022/09/30 11:11:52;;;;;;;14.55;11.48;;;13.10;99.90;;;;;;5097071;27;20035;-77
2022/09/30 11:14:41;;;;;;;13.77;11.07;;;13.20;99.90;;;;;;5094930;28;20138;-77
2022/09/30 11:17:35;;;;;;;13.15;11.27;;;13.30;99.90;;;;;;5091004;27;20066;-76
2022/09/30 11:20:18;;;;;;;14.90;12.13;;;13.40;99.90;;;;;;5072793;27;20551;-78
2022/09/30 11:22:50;;;;;;;13.88;12.20;;;13.60;99.90;;;;;;5087469;28;20568;-77
2022/09/30 11:25:23;;;;;;;15.95;12.60;;;13.60;99.90;;;;;;5098602;28;20036;-79
2022/09/30 11:28:13;;;;;;;13.55;11.23;;;13.70;99.90;;;;;;5088656;27;20143;-76
2022/09/30 11:31:08;;;;;;;12.02;10.82;;;13.80;99.90;;;;;;5095459;28;20104;-77
2022/09/30 11:33:48;;;;;;;15.05;12.13;;;13.90;99.90;;;;;;5093664;28;20032;-77
2022/09/30 11:36:33;;;;;;;12.75;11.15;;;14.10;99.90;;;;;;5093078;28;20388;-77
2022/09/30 11:39:10;;;;;;;12.00;10.40;;;14.20;99.90;;;;;;5088752;27;20039;-77
2022/09/30 11:41:59;;;;;;;14.07;9.35;;;14.40;99.90;;;;;;5121621;27;20026;-77
2022/09/30 11:44:34;;;;;;;11.77;9.27;;;14.50;99.90;;;;;;5111356;27;20066;-78
2022/09/30 11:47:06;;;;;;;10.80;9.32;;;14.70;99.90;;;;;;5126805;27;20047;-77
2022/09/30 11:49:50;;;;;;;11.68;9.45;;;14.80;99.90;;;;;;5123063;27;20052;-77
2022/09/30 11:52:26;;;;;;;9.60;8.48;;;14.90;99.90;;;;;;5120015;27;20303;-78
2022/09/30 11:54:57;;;;;;;12.35;8.32;;;15.00;99.90;;;;;;5118047;27;20110;-78
2022/09/30 11:57:42;;;;;;;9.90;7.93;;;15.10;99.90;;;;;;5126462;27;20030;-77
2022/09/30 12:00:11;;;;;;;11.05;8.13;;;15.20;99.90;;;;;;5121376;27;20038;-77
2022/09/30 12:02:46;;;;;;;11.90;8.80;;;15.30;99.90;;;;;;5110343;27;20035;-78
2022/09/30 12:05:34;;;;;;;10.35;7.75;;;15.30;99.90;;;;;;5119701;27;20067;-79
2022/09/30 12:08:09;;;;;;;8.93;8.07;;;15.40;99.90;;;;;;5138533;27;20355;-78
2022/09/30 12:10:43;;;;;;;8.98;7.75;;;15.40;99.90;;;;;;5132157;27;20029;-78
2022/09/30 12:13:24;;;;;;;7.10;6.05;;;15.50;99.90;;;;;;5123111;27;20035;-77
2022/09/30 12:15:54;;;;;;;8.27;5.95;;;15.60;99.90;;;;;;5118085;27;20050;-79
2022/09/30 12:18:55;;;;;;;7.00;5.05;;;15.70;99.90;;;;;;5108449;27;20034;-78
2022/09/30 12:21:31;;;;;;;9.43;5.95;;;15.80;99.90;;;;;;5099268;27;20050;-77
2022/09/30 12:24:10;;;;;;;7.00;5.85;;;15.90;99.90;;;;;;5130931;27;20063;-77
2022/09/30 12:26:39;;;;;;;7.72;6.38;;;16.00;99.90;;;;;;5094795;27;20031;-77
2022/09/30 12:32:27;;;;;;;9.50;7.28;;;16.00;99.90;;;;;;5118829;27;20732;-79
2022/09/30 12:35:22;;;;;;;8.93;7.03;;;16.00;99.90;;;;;;5033190;28;20155;-78
2022/09/30 12:38:08;;;;;;;7.03;5.72;;;16.10;99.90;;;;;;5109108;27;20112;-80
2022/09/30 12:41:01;;;;;;;7.47;5.32;;;16.20;99.90;;;;;;5133064;27;20023;-78
2022/09/30 12:43:41;;;;;;;10.20;5.72;;;16.30;99.90;;;;;;5129018;27;20125;-77
2022/09/30 12:46:18;;;;;;;7.25;5.85;;;16.30;99.90;;;;;;5110700;27;20115;-76
2022/09/30 12:48:54;;;;;;;7.68;4.63;;;16.20;99.90;;;;;;5121609;27;20184;-78
2022/09/30 12:51:31;;;;;;;7.88;4.57;;;16.10;99.90;;;;;;5127432;27;20378;-78
2022/09/30 12:54:27;;;;;;;7.43;6.00;;;16.20;99.90;;;;;;5110930;27;20031;-78
2022/09/30 12:57:02;;;;;;;6.10;5.22;;;16.00;99.90;;;;;;5105783;28;20038;-78
2022/09/30 12:59:34;;;;;;;8.43;5.95;;;15.90;99.90;;;;;;5112409;28;20018;-77
2022/09/30 13:02:03;;;;;;;5.60;4.47;;;15.70;99.90;;;;;;5113592;27;20447;-75
2022/09/30 13:04:41;;;;;;;7.60;4.72;;;15.70;99.90;;;;;;5111846;27;20020;-76
2022/09/30 13:07:15;;;;;;;13.82;4.32;;;15.80;99.90;;;;;;5119958;27;20483;-76
2022/09/30 13:10:29;;;;;;;7.18;3.08;;;15.70;99.90;;;;;;5110388;27;20534;-75
2022/09/30 13:13:22;;;;;;;;;;;15.70;99.90;;;;;;5062433;28;20050;-75
2022/09/30 13:15:49;;;;;;;23.50;3.03;;;15.80;99.90;;;;;;5113051;27;20643;-76
2022/09/30 13:18:21;;;;;;;25.73;3.40;;;15.90;99.90;;;;;;5110839;27;20042;-76
2022/09/30 13:21:14;;;;;;;35.97;5.95;;;16.20;99.90;;;;;;5113515;27;21840;-76
2022/09/30 13:23:54;;;;;;;10.52;3.22;;;16.40;99.90;;;;;;5111933;27;20031;-75